sensor_id;sensor_type;location;lat;lon;timestamp;pressure;altitude;pressure_sealevel;temperature;humidity
43071;BME280;36278;47.952;21.714;2023-01-24T00:00:33;101799.66;;;2.86;97.51
43071;BME280;36278;47.952;21.714;2023-01-24T00:02:58;101797.00;;;2.88;98.33
43071;BME280;36278;47.952;21.714;2023-01-24T00:05:24;101796.19;;;2.86;97.77
43071;BME280;36278;47.952;21.714;2023-01-24T00:07:49;101789.16;;;2.88;97.75
43071;BME280;36278;47.952;21.714;2023-01-24T00:10:15;101780.47;;;2.86;98.15
43071;BME280;36278;47.952;21.714;2023-01-24T00:12:41;101786.34;;;2.97;97.55
43071;BME280;36278;47.952;21.714;2023-01-24T00:15:07;101786.25;;;3.00;96.54
43071;BME280;36278;47.952;21.714;2023-01-24T00:17:33;101790.72;;;2.96;97.36
43071;BME280;36278;47.952;21.714;2023-01-24T00:19:58;101798.47;;;3.01;96.42
43071;BME280;36278;47.952;21.714;2023-01-24T00:22:24;101785.53;;;2.95;96.70
43071;BME280;36278;47.952;21.714;2023-01-24T00:24:50;101789.00;;;2.95;97.16
43071;BME280;36278;47.952;21.714;2023-01-24T00:27:16;101801.78;;;3.11;96.46
43071;BME280;36278;47.952;21.714;2023-01-24T00:29:42;101798.47;;;3.01;96.48
43071;BME280;36278;47.952;21.714;2023-01-24T00:32:08;101799.69;;;2.83;96.78
43071;BME280;36278;47.952;21.714;2023-01-24T00:34:34;101801.28;;;2.92;97.45
43071;BME280;36278;47.952;21.714;2023-01-24T00:37:00;101793.41;;;2.92;97.19
43071;BME280;36278;47.952;21.714;2023-01-24T00:39:25;101802.03;;;2.97;96.33
43071;BME280;36278;47.952;21.714;2023-01-24T00:41:51;101802.13;;;2.92;97.22
43071;BME280;36278;47.952;21.714;2023-01-24T00:44:16;101808.25;;;2.91;97.12
43071;BME280;36278;47.952;21.714;2023-01-24T00:46:41;101784.09;;;2.78;97.32
43071;BME280;36278;47.952;21.714;2023-01-24T00:49:07;101794.34;;;2.89;97.37
43071;BME280;36278;47.952;21.714;2023-01-24T00:51:33;101788.38;;;2.83;97.12
43071;BME280;36278;47.952;21.714;2023-01-24T00:53:58;101799.88;;;2.74;97.90
43071;BME280;36278;47.952;21.714;2023-01-24T00:56:24;101794.75;;;2.68;97.98
43071;BME280;36278;47.952;21.714;2023-01-24T00:58:49;101801.56;;;2.76;98.04
43071;BME280;36278;47.952;21.714;2023-01-24T01:01:15;101797.19;;;2.78;97.58
43071;BME280;36278;47.952;21.714;2023-01-24T01:03:41;101796.34;;;2.78;96.99
43071;BME280;36278;47.952;21.714;2023-01-24T01:06:11;101794.88;;;2.63;97.85
43071;BME280;36278;47.952;21.714;2023-01-24T01:08:37;101798.31;;;2.65;97.92
43071;BME280;36278;47.952;21.714;2023-01-24T01:11:03;101805.22;;;2.69;98.57
43071;BME280;36278;47.952;21.714;2023-01-24T01:13:29;101808.47;;;2.80;97.59
43071;BME280;36278;47.952;21.714;2023-01-24T01:16:21;101803.25;;;2.80;97.74
43071;BME280;36278;47.952;21.714;2023-01-24T01:18:47;101805.84;;;2.82;97.05
43071;BME280;36278;47.952;21.714;2023-01-24T01:21:15;101806.66;;;2.84;97.69
43071;BME280;36278;47.952;21.714;2023-01-24T01:23:40;101808.28;;;2.90;97.12
43071;BME280;36278;47.952;21.714;2023-01-24T01:26:08;101814.50;;;2.86;96.68
43071;BME280;36278;47.952;21.714;2023-01-24T01:28:35;101816.38;;;2.79;97.96
43071;BME280;36278;47.952;21.714;2023-01-24T01:31:01;101812.16;;;2.72;98.41
43071;BME280;36278;47.952;21.714;2023-01-24T01:33:26;101810.44;;;2.71;98.11
43071;BME280;36278;47.952;21.714;2023-01-24T01:35:52;101799.13;;;2.67;98.18
43071;BME280;36278;47.952;21.714;2023-01-24T01:38:18;101806.19;;;2.64;98.77
43071;BME280;36278;47.952;21.714;2023-01-24T01:40:44;101803.66;;;2.61;99.42
43071;BME280;36278;47.952;21.714;2023-01-24T01:43:13;101805.41;;;2.59;98.98
43071;BME280;36278;47.952;21.714;2023-01-24T01:45:43;101799.09;;;2.70;98.91
43071;BME280;36278;47.952;21.714;2023-01-24T01:50:57;101801.56;;;2.78;98.15
43071;BME280;36278;47.952;21.714;2023-01-24T01:53:28;101794.69;;;2.72;98.28
43071;BME280;36278;47.952;21.714;2023-01-24T01:56:00;101798.25;;;2.70;98.65
43071;BME280;36278;47.952;21.714;2023-01-24T01:58:27;101798.88;;;2.81;97.39
43071;BME280;36278;47.952;21.714;2023-01-24T02:00:53;101790.31;;;2.73;98.02
43071;BME280;36278;47.952;21.714;2023-01-24T02:03:29;101805.78;;;2.84;97.17
43071;BME280;36278;47.952;21.714;2023-01-24T02:06:10;101813.00;;;2.72;98.39
43071;BME280;36278;47.952;21.714;2023-01-24T02:08:36;101813.00;;;2.72;98.53
43071;BME280;36278;47.952;21.714;2023-01-24T02:11:02;101813.81;;;2.74;98.11
43071;BME280;36278;47.952;21.714;2023-01-24T02:13:46;101811.03;;;2.84;98.04
43071;BME280;36278;47.952;21.714;2023-01-24T02:16:13;101810.94;;;2.88;97.16
43071;BME280;36278;47.952;21.714;2023-01-24T02:18:40;101811.97;;;2.81;97.72
43071;BME280;36278;47.952;21.714;2023-01-24T02:21:08;101814.66;;;2.78;98.73
43071;BME280;36278;47.952;21.714;2023-01-24T02:26:28;101814.72;;;2.73;98.94
43071;BME280;36278;47.952;21.714;2023-01-24T02:29:00;101794.03;;;2.60;99.39
43071;BME280;36278;47.952;21.714;2023-01-24T02:31:27;101821.75;;;2.71;100.00
43071;BME280;36278;47.952;21.714;2023-01-24T02:33:52;101822.56;;;2.73;99.29
43071;BME280;36278;47.952;21.714;2023-01-24T02:39:02;101819.81;;;2.81;97.91
43071;BME280;36278;47.952;21.714;2023-01-24T02:41:34;101816.25;;;2.84;98.26
43071;BME280;36278;47.952;21.714;2023-01-24T02:44:07;101817.22;;;2.79;98.15
43071;BME280;36278;47.952;21.714;2023-01-24T02:46:37;101810.31;;;2.77;98.09
43071;BME280;36278;47.952;21.714;2023-01-24T02:49:07;101806.69;;;2.83;97.96
43071;BME280;36278;47.952;21.714;2023-01-24T02:51:33;101806.81;;;2.78;97.84
43071;BME280;36278;47.952;21.714;2023-01-24T02:54:17;101806.91;;;2.72;98.55
43071;BME280;36278;47.952;21.714;2023-01-24T02:56:42;101801.72;;;2.70;98.56
43071;BME280;36278;47.952;21.714;2023-01-24T02:59:26;101817.38;;;2.72;98.18
43071;BME280;36278;47.952;21.714;2023-01-24T03:01:52;101804.31;;;2.70;98.18
43071;BME280;36278;47.952;21.714;2023-01-24T03:04:17;101811.31;;;2.68;98.98
43071;BME280;36278;47.952;21.714;2023-01-24T03:06:43;101807.69;;;2.77;98.25
43071;BME280;36278;47.952;21.714;2023-01-24T03:09:08;101811.16;;;2.77;98.62
43071;BME280;36278;47.952;21.714;2023-01-24T03:11:54;101803.44;;;2.71;98.55
43071;BME280;36278;47.952;21.714;2023-01-24T03:14:38;101809.53;;;2.72;98.45
43071;BME280;36278;47.952;21.714;2023-01-24T03:17:22;101809.50;;;2.73;98.70
43071;BME280;36278;47.952;21.714;2023-01-24T03:20:05;101810.28;;;2.78;98.70
43071;BME280;36278;47.952;21.714;2023-01-24T03:22:50;101806.84;;;2.75;98.16
43071;BME280;36278;47.952;21.714;2023-01-24T03:25:34;101814.78;;;2.70;99.25
43071;BME280;36278;47.952;21.714;2023-01-24T03:28:17;101803.53;;;2.65;99.03
43071;BME280;36278;47.952;21.714;2023-01-24T03:31:05;101815.50;;;2.78;98.13
43071;BME280;36278;47.952;21.714;2023-01-24T03:33:49;101808.59;;;2.74;98.07
43071;BME280;36278;47.952;21.714;2023-01-24T03:36:33;101803.34;;;2.74;98.39
43071;BME280;36278;47.952;21.714;2023-01-24T03:38:58;101820.81;;;2.74;99.02
43071;BME280;36278;47.952;21.714;2023-01-24T03:41:42;101813.06;;;2.68;99.41
43071;BME280;36278;47.952;21.714;2023-01-24T03:44:08;101810.38;;;2.72;99.40
43071;BME280;36278;47.952;21.714;2023-01-24T03:46:33;101809.47;;;2.75;98.26
43071;BME280;36278;47.952;21.714;2023-01-24T03:49:05;101818.25;;;2.72;98.15
43071;BME280;36278;47.952;21.714;2023-01-24T03:51:30;101819.06;;;2.74;98.66
43071;BME280;36278;47.952;21.714;2023-01-24T03:54:14;101814.53;;;2.83;98.60
43071;BME280;36278;47.952;21.714;2023-01-24T03:56:39;101806.88;;;2.73;99.23
43071;BME280;36278;47.952;21.714;2023-01-24T03:59:05;101818.31;;;2.69;99.04
43071;BME280;36278;47.952;21.714;2023-01-24T04:01:30;101819.16;;;2.70;99.22
43071;BME280;36278;47.952;21.714;2023-01-24T04:03:56;101804.41;;;2.66;100.00
43071;BME280;36278;47.952;21.714;2023-01-24T04:06:21;101813.00;;;2.72;99.44
43071;BME280;36278;47.952;21.714;2023-01-24T04:08:47;101811.28;;;2.71;99.55
43071;BME280;36278;47.952;21.714;2023-01-24T04:11:12;101812.03;;;2.76;98.92
43071;BME280;36278;47.952;21.714;2023-01-24T04:13:37;101810.25;;;2.80;99.30
43071;BME280;36278;47.952;21.714;2023-01-24T04:16:05;101805.94;;;2.77;98.64
43071;BME280;36278;47.952;21.714;2023-01-24T04:18:31;101804.16;;;2.79;98.77
43071;BME280;36278;47.952;21.714;2023-01-24T04:21:00;101799.78;;;2.80;98.26
43071;BME280;36278;47.952;21.714;2023-01-24T04:23:26;101801.63;;;2.73;99.04
43071;BME280;36278;47.952;21.714;2023-01-24T04:25:52;101807.78;;;2.72;99.28
43071;BME280;36278;47.952;21.714;2023-01-24T04:28:20;101796.47;;;2.70;100.00
43071;BME280;36278;47.952;21.714;2023-01-24T04:30:46;101797.28;;;2.74;99.07
43071;BME280;36278;47.952;21.714;2023-01-24T04:33:12;101805.94;;;2.76;99.76
43071;BME280;36278;47.952;21.714;2023-01-24T04:35:37;101804.94;;;2.83;99.53
43071;BME280;36278;47.952;21.714;2023-01-24T04:38:03;101805.94;;;2.77;99.05
43071;BME280;36278;47.952;21.714;2023-01-24T04:40:28;101802.47;;;2.75;98.97
43071;BME280;36278;47.952;21.714;2023-01-24T04:42:57;101811.13;;;2.79;99.79
43071;BME280;36278;47.952;21.714;2023-01-24T04:45:23;101808.47;;;2.80;98.61
43071;BME280;36278;47.952;21.714;2023-01-24T04:47:49;101810.16;;;2.83;98.64
43071;BME280;36278;47.952;21.714;2023-01-24T04:50:15;101811.09;;;2.80;98.27
43071;BME280;36278;47.952;21.714;2023-01-24T04:52:40;101818.91;;;2.82;98.67
43071;BME280;36278;47.952;21.714;2023-01-24T04:55:06;101810.31;;;2.75;99.31
43071;BME280;36278;47.952;21.714;2023-01-24T04:57:32;101812.84;;;2.80;98.99
43071;BME280;36278;47.952;21.714;2023-01-24T04:59:58;101819.91;;;2.75;99.23
43071;BME280;36278;47.952;21.714;2023-01-24T05:02:23;101822.47;;;2.79;98.84
43071;BME280;36278;47.952;21.714;2023-01-24T05:04:49;101811.97;;;2.81;98.98
43071;BME280;36278;47.952;21.714;2023-01-24T05:07:14;101820.72;;;2.80;98.75
43071;BME280;36278;47.952;21.714;2023-01-24T05:09:40;101813.78;;;2.76;98.75
43071;BME280;36278;47.952;21.714;2023-01-24T05:12:05;101818.13;;;2.78;98.39
43071;BME280;36278;47.952;21.714;2023-01-24T05:14:31;101820.75;;;2.78;98.51
43071;BME280;36278;47.952;21.714;2023-01-24T05:16:56;101825.97;;;2.78;98.65
43071;BME280;36278;47.952;21.714;2023-01-24T05:19:22;101815.69;;;2.69;99.41
43071;BME280;36278;47.952;21.714;2023-01-24T05:21:47;101819.25;;;2.65;99.46
43071;BME280;36278;47.952;21.714;2023-01-24T05:24:12;101815.75;;;2.65;99.56
43071;BME280;36278;47.952;21.714;2023-01-24T05:26:38;101820.97;;;2.66;99.75
43071;BME280;36278;47.952;21.714;2023-01-24T05:29:03;101821.84;;;2.65;99.80
43071;BME280;36278;47.952;21.714;2023-01-24T05:31:29;101821.78;;;2.68;99.71
43071;BME280;36278;47.952;21.714;2023-01-24T05:33:54;101821.78;;;2.68;99.64
43071;BME280;36278;47.952;21.714;2023-01-24T05:36:21;101806.25;;;2.59;100.00
43071;BME280;36278;47.952;21.714;2023-01-24T05:38:48;101823.41;;;2.77;99.46
43071;BME280;36278;47.952;21.714;2023-01-24T05:41:15;101831.22;;;2.78;98.58
43071;BME280;36278;47.952;21.714;2023-01-24T05:43:42;101834.66;;;2.80;98.89
43071;BME280;36278;47.952;21.714;2023-01-24T05:46:16;101828.53;;;2.81;98.59
43071;BME280;36278;47.952;21.714;2023-01-24T05:48:43;101821.50;;;2.85;98.56
43071;BME280;36278;47.952;21.714;2023-01-24T05:51:11;101838.16;;;2.79;99.22
43071;BME280;36278;47.952;21.714;2023-01-24T05:53:39;101836.44;;;2.78;99.09
43071;BME280;36278;47.952;21.714;2023-01-24T05:56:07;101835.63;;;2.75;99.19
43071;BME280;36278;47.952;21.714;2023-01-24T05:58:36;101832.03;;;2.80;98.47
43071;BME280;36278;47.952;21.714;2023-01-24T06:01:08;101833.81;;;2.78;99.00
43071;BME280;36278;47.952;21.714;2023-01-24T06:03:36;101837.22;;;2.82;98.55
43071;BME280;36278;47.952;21.714;2023-01-24T06:06:02;101840.81;;;2.78;99.41
43071;BME280;36278;47.952;21.714;2023-01-24T06:08:27;101838.13;;;2.81;98.65
43071;BME280;36278;47.952;21.714;2023-01-24T06:10:52;101835.44;;;2.86;99.40
43071;BME280;36278;47.952;21.714;2023-01-24T06:13:18;101843.31;;;2.83;99.38
43071;BME280;36278;47.952;21.714;2023-01-24T06:15:43;101838.91;;;2.85;99.48
43071;BME280;36278;47.952;21.714;2023-01-24T06:18:13;101849.25;;;2.92;98.75
43071;BME280;36278;47.952;21.714;2023-01-24T06:20:39;101844.94;;;2.90;98.96
43071;BME280;36278;47.952;21.714;2023-01-24T06:23:07;101848.38;;;2.93;98.30
43071;BME280;36278;47.952;21.714;2023-01-24T06:25:33;101837.97;;;2.89;99.35
43071;BME280;36278;47.952;21.714;2023-01-24T06:27:59;101847.47;;;2.94;99.06
43071;BME280;36278;47.952;21.714;2023-01-24T06:30:25;101845.69;;;2.96;98.42
43071;BME280;36278;47.952;21.714;2023-01-24T06:33:11;101841.34;;;2.95;99.11
43071;BME280;36278;47.952;21.714;2023-01-24T06:38:29;101853.44;;;3.01;98.38
43071;BME280;36278;47.952;21.714;2023-01-24T06:41:00;101851.72;;;3.00;98.53
43071;BME280;36278;47.952;21.714;2023-01-24T06:43:27;101856.91;;;3.03;99.12
43071;BME280;36278;47.952;21.714;2023-01-24T06:45:53;101857.72;;;3.05;98.72
43071;BME280;36278;47.952;21.714;2023-01-24T06:48:19;101857.66;;;3.08;99.05
43071;BME280;36278;47.952;21.714;2023-01-24T06:50:45;101864.50;;;3.15;98.72
43071;BME280;36278;47.952;21.714;2023-01-24T06:53:10;101859.34;;;3.12;98.91
43071;BME280;36278;47.952;21.714;2023-01-24T06:55:37;101861.03;;;3.15;97.96
43071;BME280;36278;47.952;21.714;2023-01-24T06:58:03;101865.34;;;3.16;98.80
43071;BME280;36278;47.952;21.714;2023-01-24T07:00:29;101865.13;;;3.28;98.64
43071;BME280;36278;47.952;21.714;2023-01-24T07:03:03;101863.22;;;3.36;96.92
43071;BME280;36278;47.952;21.714;2023-01-24T07:05:32;101878.91;;;3.36;96.97
43071;BME280;36278;47.952;21.714;2023-01-24T07:07:59;101871.06;;;3.36;97.06
43071;BME280;36278;47.952;21.714;2023-01-24T07:10:25;101871.84;;;3.40;96.89
43071;BME280;36278;47.952;21.714;2023-01-24T07:12:50;101859.88;;;3.28;96.82
43071;BME280;36278;47.952;21.714;2023-01-24T07:15:16;101881.47;;;3.39;97.16
43071;BME280;36278;47.952;21.714;2023-01-24T07:17:43;101881.44;;;3.41;97.72
43071;BME280;36278;47.952;21.714;2023-01-24T07:20:09;101885.72;;;3.45;97.06
43071;BME280;36278;47.952;21.714;2023-01-24T07:22:37;101887.38;;;3.49;97.48
43071;BME280;36278;47.952;21.714;2023-01-24T07:25:37;101895.16;;;3.53;96.81
43071;BME280;36278;47.952;21.714;2023-01-24T07:27:56;101880.31;;;3.52;97.33
43071;BME280;36278;47.952;21.714;2023-01-24T07:30:21;101882.00;;;3.55;97.09
43071;BME280;36278;47.952;21.714;2023-01-24T07:32:47;101887.13;;;3.61;96.62
43071;BME280;36278;47.952;21.714;2023-01-24T07:35:12;101891.38;;;3.65;96.53
43071;BME280;36278;47.952;21.714;2023-01-24T07:37:38;101872.25;;;3.61;96.90
43071;BME280;36278;47.952;21.714;2023-01-24T07:40:05;101875.75;;;3.62;96.71
43071;BME280;36278;47.952;21.714;2023-01-24T07:42:30;101891.19;;;3.74;96.60
43071;BME280;36278;47.952;21.714;2023-01-24T07:44:56;101889.28;;;3.81;96.50
43071;BME280;36278;47.952;21.714;2023-01-24T07:47:23;101883.16;;;3.82;96.33
43071;BME280;36278;47.952;21.714;2023-01-24T07:49:48;101881.19;;;3.91;95.41
43071;BME280;36278;47.952;21.714;2023-01-24T07:52:14;101880.22;;;3.96;95.55
43071;BME280;36278;47.952;21.714;2023-01-24T07:54:40;101880.09;;;4.02;95.46
43071;BME280;36278;47.952;21.714;2023-01-24T07:57:05;101889.56;;;4.07;94.87
43071;BME280;36278;47.952;21.714;2023-01-24T07:59:33;101885.16;;;4.09;94.77
43071;BME280;36278;47.952;21.714;2023-01-24T08:01:58;101890.16;;;4.18;94.27
43071;BME280;36278;47.952;21.714;2023-01-24T08:04:24;101884.75;;;4.26;93.90
43071;BME280;36278;47.952;21.714;2023-01-24T08:06:50;101882.75;;;4.36;94.08
43071;BME280;36278;47.952;21.714;2023-01-24T08:09:42;101883.47;;;4.42;93.42
43071;BME280;36278;47.952;21.714;2023-01-24T08:12:07;101888.38;;;4.55;93.21
43071;BME280;36278;47.952;21.714;2023-01-24T08:14:34;101894.22;;;4.66;92.52
43071;BME280;36278;47.952;21.714;2023-01-24T08:17:00;101882.63;;;4.74;92.07
43071;BME280;36278;47.952;21.714;2023-01-24T08:19:25;101893.00;;;4.79;92.73
43071;BME280;36278;47.952;21.714;2023-01-24T08:21:51;101891.00;;;4.89;92.54
43071;BME280;36278;47.952;21.714;2023-01-24T08:24:17;101890.91;;;4.92;91.87
43071;BME280;36278;47.952;21.714;2023-01-24T08:26:43;101886.31;;;5.00;91.61
43071;BME280;36278;47.952;21.714;2023-01-24T08:29:12;101892.16;;;5.10;90.86
43071;BME280;36278;47.952;21.714;2023-01-24T08:31:37;101895.59;;;5.13;90.64
43071;BME280;36278;47.952;21.714;2023-01-24T08:34:03;101889.38;;;5.16;90.08
43071;BME280;36278;47.952;21.714;2023-01-24T08:36:29;101888.38;;;5.20;90.40
43071;BME280;36278;47.952;21.714;2023-01-24T08:38:54;101890.72;;;5.29;89.00
43071;BME280;36278;47.952;21.714;2023-01-24T08:41:20;101891.63;;;5.28;89.50
43071;BME280;36278;47.952;21.714;2023-01-24T08:43:45;101882.78;;;5.32;89.73
43071;BME280;36278;47.952;21.714;2023-01-24T08:46:11;101892.22;;;5.39;88.94
43071;BME280;36278;47.952;21.714;2023-01-24T08:48:36;101886.63;;;5.50;88.21
43071;BME280;36278;47.952;21.714;2023-01-24T08:51:03;101895.22;;;5.56;88.21
43071;BME280;36278;47.952;21.714;2023-01-24T08:53:29;101887.16;;;5.61;88.07
43071;BME280;36278;47.952;21.714;2023-01-24T08:55:55;101890.97;;;5.80;88.74
43071;BME280;36278;47.952;21.714;2023-01-24T08:58:21;101894.72;;;6.01;87.27
43071;BME280;36278;47.952;21.714;2023-01-24T09:00:47;101897.59;;;6.22;85.92
43071;BME280;36278;47.952;21.714;2023-01-24T09:03:16;101898.03;;;6.34;84.88
43071;BME280;36278;47.952;21.714;2023-01-24T09:05:42;101898.03;;;6.34;84.19
43071;BME280;36278;47.952;21.714;2023-01-24T09:08:08;101896.00;;;6.44;84.14
43071;BME280;36278;47.952;21.714;2023-01-24T09:10:34;101891.00;;;6.61;83.81
43071;BME280;36278;47.952;21.714;2023-01-24T09:13:01;101891.50;;;6.72;82.88
43071;BME280;36278;47.952;21.714;2023-01-24T09:15:27;101900.78;;;6.83;81.90
43071;BME280;36278;47.952;21.714;2023-01-24T09:17:52;101894.19;;;6.96;81.63
43071;BME280;36278;47.952;21.714;2023-01-24T09:20:18;101900.41;;;7.18;80.58
43071;BME280;36278;47.952;21.714;2023-01-24T09:22:44;101891.75;;;7.15;80.55
43071;BME280;36278;47.952;21.714;2023-01-24T09:25:11;101889.06;;;7.16;80.62
43071;BME280;36278;47.952;21.714;2023-01-24T09:27:36;101886.91;;;7.27;80.54
43071;BME280;36278;47.952;21.714;2023-01-24T09:30:03;101895.38;;;7.36;80.15
43071;BME280;36278;47.952;21.714;2023-01-24T09:32:30;101891.97;;;7.34;79.54
43071;BME280;36278;47.952;21.714;2023-01-24T09:34:56;101894.13;;;7.46;80.20
43071;BME280;36278;47.952;21.714;2023-01-24T09:37:22;101889.25;;;7.35;79.65
43071;BME280;36278;47.952;21.714;2023-01-24T09:39:48;101891.34;;;7.49;80.20
43071;BME280;36278;47.952;21.714;2023-01-24T09:45:22;101886.13;;;7.71;79.42
43071;BME280;36278;47.952;21.714;2023-01-24T09:47:57;101891.31;;;7.96;77.76
43071;BME280;36278;47.952;21.714;2023-01-24T09:50:47;101888.13;;;7.87;78.68
43071;BME280;36278;47.952;21.714;2023-01-24T09:53:44;101879.00;;;7.73;78.91
43071;BME280;36278;47.952;21.714;2023-01-24T09:56:35;101875.41;;;7.75;79.76
43071;BME280;36278;47.952;21.714;2023-01-24T09:59:20;101878.13;;;7.96;78.68
43071;BME280;36278;47.952;21.714;2023-01-24T10:01:51;101874.69;;;8.15;78.47
43071;BME280;36278;47.952;21.714;2023-01-24T10:04:35;101874.84;;;8.33;78.15
43071;BME280;36278;47.952;21.714;2023-01-24T10:07:28;101874.25;;;8.48;77.23
43071;BME280;36278;47.952;21.714;2023-01-24T10:18:49;101871.06;;;8.40;77.97
43071;BME280;36278;47.952;21.714;2023-01-24T10:24:07;101866.19;;;8.92;76.03
43071;BME280;36278;47.952;21.714;2023-01-24T10:26:48;101855.81;;;8.87;76.50
43071;BME280;36278;47.952;21.714;2023-01-24T10:29:22;101859.44;;;9.05;75.60
43071;BME280;36278;47.952;21.714;2023-01-24T10:31:56;101857.00;;;9.19;75.55
43071;BME280;36278;47.952;21.714;2023-01-24T10:36:58;101862.41;;;9.37;74.25
43071;BME280;36278;47.952;21.714;2023-01-24T10:39:25;101844.25;;;9.48;73.09
43071;BME280;36278;47.952;21.714;2023-01-24T10:41:53;101848.31;;;9.55;73.51
43071;BME280;36278;47.952;21.714;2023-01-24T10:44:39;101842.63;;;9.45;72.73
43071;BME280;36278;47.952;21.714;2023-01-24T10:49:59;101837.31;;;9.64;72.24
43071;BME280;36278;47.952;21.714;2023-01-24T10:52:25;101837.59;;;9.58;72.20
43071;BME280;36278;47.952;21.714;2023-01-24T10:54:56;101830.06;;;9.68;72.40
43071;BME280;36278;47.952;21.714;2023-01-24T10:57:49;101829.69;;;9.75;71.38
43071;BME280;36278;47.952;21.714;2023-01-24T11:02:50;101829.69;;;9.75;70.79
43071;BME280;36278;47.952;21.714;2023-01-24T11:05:17;101819.84;;;9.60;71.33
43071;BME280;36278;47.952;21.714;2023-01-24T11:07:54;101817.31;;;9.76;69.58
43071;BME280;36278;47.952;21.714;2023-01-24T11:10:44;101815.00;;;9.70;71.01
43071;BME280;36278;47.952;21.714;2023-01-24T11:13:40;101809.25;;;9.79;70.52
43071;BME280;36278;47.952;21.714;2023-01-24T11:21:19;101784.22;;;9.86;71.36
43071;BME280;36278;47.952;21.714;2023-01-24T11:23:45;101795.59;;;10.05;71.39
43071;BME280;36278;47.952;21.714;2023-01-24T11:26:29;101782.06;;;10.11;71.24
43071;BME280;36278;47.952;21.714;2023-01-24T11:29:04;101793.03;;;10.04;71.49
43071;BME280;36278;47.952;21.714;2023-01-24T11:31:39;101790.38;;;10.04;70.90
43071;BME280;36278;47.952;21.714;2023-01-24T11:48:28;101782.78;;;9.79;71.82
43071;BME280;36278;47.952;21.714;2023-01-24T11:53:38;101783.28;;;9.68;72.11
43071;BME280;36278;47.952;21.714;2023-01-24T12:05:19;101775.69;;;9.43;73.05
43071;BME280;36278;47.952;21.714;2023-01-24T12:11:24;101779.84;;;9.49;73.09
43071;BME280;36278;47.952;21.714;2023-01-24T12:17:12;101776.13;;;9.34;73.71
43071;BME280;36278;47.952;21.714;2023-01-24T12:20:22;101783.28;;;9.32;73.61
43071;BME280;36278;47.952;21.714;2023-01-24T12:22:48;101783.34;;;9.12;74.45
43071;BME280;36278;47.952;21.714;2023-01-24T12:25:25;101780.75;;;9.10;75.15
43071;BME280;36278;47.952;21.714;2023-01-24T12:27:57;101778.19;;;9.09;75.62
43071;BME280;36278;47.952;21.714;2023-01-24T12:30:34;101784.84;;;9.17;76.49
43071;BME280;36278;47.952;21.714;2023-01-24T12:33:26;101775.34;;;9.32;74.84
43071;BME280;36278;47.952;21.714;2023-01-24T12:35:59;101775.56;;;9.46;74.61
43071;BME280;36278;47.952;21.714;2023-01-24T12:38:45;101781.28;;;9.73;73.73
43071;BME280;36278;47.952;21.714;2023-01-24T12:41:32;101778.97;;;9.84;73.42
43071;BME280;36278;47.952;21.714;2023-01-24T12:49:41;101783.59;;;9.98;72.38
43071;BME280;36278;47.952;21.714;2023-01-24T12:55:16;101780.59;;;10.23;70.83
43071;BME280;36278;47.952;21.714;2023-01-24T13:00:47;101770.81;;;10.58;70.00
43071;BME280;36278;47.952;21.714;2023-01-24T13:03:30;101765.19;;;10.64;68.89
43071;BME280;36278;47.952;21.714;2023-01-24T13:06:08;101765.09;;;10.83;68.30
43071;BME280;36278;47.952;21.714;2023-01-24T13:08:38;101763.66;;;10.93;67.96
43071;BME280;36278;47.952;21.714;2023-01-24T13:11:26;101767.00;;;11.29;66.83
43071;BME280;36278;47.952;21.714;2023-01-24T13:25:46;101751.13;;;15.04;54.73
43071;BME280;36278;47.952;21.714;2023-01-24T13:33:47;101743.47;;;15.73;51.93
43071;BME280;36278;47.952;21.714;2023-01-24T13:36:19;101748.09;;;15.22;53.13
43071;BME280;36278;47.952;21.714;2023-01-24T13:38:46;101758.03;;;14.83;53.44
43071;BME280;36278;47.952;21.714;2023-01-24T13:41:34;101747.34;;;14.57;54.33
43071;BME280;36278;47.952;21.714;2023-01-24T13:54:56;101751.53;;;15.84;51.02
43071;BME280;36278;47.952;21.714;2023-01-24T14:10:47;101771.44;;;15.43;50.94
43071;BME280;36278;47.952;21.714;2023-01-24T14:16:11;101775.56;;;15.24;51.68
43071;BME280;36278;47.952;21.714;2023-01-24T14:19:44;101774.19;;;13.62;54.78
43071;BME280;36278;47.952;21.714;2023-01-24T14:24:59;101781.03;;;11.78;60.33
43071;BME280;36278;47.952;21.714;2023-01-24T14:27:38;101792.25;;;11.20;62.71
43071;BME280;36278;47.952;21.714;2023-01-24T14:30:36;101797.28;;;10.93;64.01
43071;BME280;36278;47.952;21.714;2023-01-24T14:33:16;101788.28;;;10.62;65.12
43071;BME280;36278;47.952;21.714;2023-01-24T14:35:59;101786.13;;;10.36;66.62
43071;BME280;36278;47.952;21.714;2023-01-24T14:38:25;101789.63;;;10.36;66.08
43071;BME280;36278;47.952;21.714;2023-01-24T14:40:54;101791.50;;;10.34;66.07
43071;BME280;36278;47.952;21.714;2023-01-24T14:43:24;101789.66;;;10.18;66.52
43071;BME280;36278;47.952;21.714;2023-01-24T14:45:50;101794.44;;;9.75;68.43
43071;BME280;36278;47.952;21.714;2023-01-24T14:48:22;101805.09;;;9.37;70.07
43071;BME280;36278;47.952;21.714;2023-01-24T14:51:02;101810.50;;;9.15;70.98
43071;BME280;36278;47.952;21.714;2023-01-24T14:53:30;101796.47;;;8.94;71.79
43071;BME280;36278;47.952;21.714;2023-01-24T14:56:02;101797.63;;;8.68;73.40
43071;BME280;36278;47.952;21.714;2023-01-24T14:58:28;101802.97;;;8.47;75.06
43071;BME280;36278;47.952;21.714;2023-01-24T15:00:57;101798.91;;;8.39;75.01
43071;BME280;36278;47.952;21.714;2023-01-24T15:03:26;101803.63;;;8.31;75.56
43071;BME280;36278;47.952;21.714;2023-01-24T15:08:22;101805.25;;;8.13;76.32
43071;BME280;36278;47.952;21.714;2023-01-24T15:13:30;101805.09;;;7.96;77.47
43071;BME280;36278;47.952;21.714;2023-01-24T15:15:57;101803.81;;;7.84;77.93
43071;BME280;36278;47.952;21.714;2023-01-24T15:18:40;101818.53;;;7.68;79.15